Kodiak, AK (99615)

3:22 AM AKST on February 12, 2016 (GMT -0900)
Kodiak College | | Change Station
CLOSE
Current Station
Personal Weather Station
Location: Kodiak, AK
Elevation: 154 ft
Nearby Weather Stations

Elev 154 ft 57.81 °N, 152.37 °W | Updated 5 minutes ago

Overcast
Overcast
38.3 °F
Feels Like 38 °F
N
0.0
Wind Variable Wind from North

Today
High -- | Low -- °F
--% Chance of Precip.
Yesterday
High -- | Low -- °F
Precip. -- in
Pressure 29.35 in
Visibility 10.0 miles
Clouds Few 1800 ft
Mostly Cloudy 3000 ft
Overcast 3900 ft
Windchill 38 °F
Dew Point 37 °F
Humidity 96%
Rainfall 0.00 in
Snow Depth Not available.
8:48 AM 6:00 PM
Waxing Crescent, 20% visible
METAR PADQ 121053Z 30005KT 10SM FEW018 BKN030 OVC039 02/02 A2935 RMK AO2 RAE01 SLP938 P0000 T00170017 $
Pressure 29.35 in
Visibility 10.0 miles
Clouds Few 1800 ft
Mostly Cloudy 3000 ft
Overcast 3900 ft
Windchill 38 °F
Dew Point 37 °F
Humidity 96%
Rainfall 0.00 in
Snow Depth Not available.
8:48 AM 6:00 PM
Waxing Crescent, 20% visible
METAR PADQ 121053Z 30005KT 10SM FEW018 BKN030 OVC039 02/02 A2935 RMK AO2 RAE01 SLP938 P0000 T00170017 $

10-Day Weather Forecast

Almanac

Astronomy

Feb. 12, 2016 Rise Set
Actual Time
Civil Twilight
Nautical Twilight
Astronomical Twilight
Moon
Length of Visible Light
Length of Day
Tomorrow will be .
, % of the Moon is Illuminated

Today's Extremes

State Highs State Lows

Community

WunderPhotos

Upload Photos

1,892,295 photos uploaded!

WunderBlog® & News

Nearby

Air Quality

  Air Quality AQ Index Pollutant
Not available.

Snow Depth

Station Depth Elevation

Earthquake Activity

City Distance Mag. Time & Date
Minimum magnitude displayed is 2.5.

Coastal Water Temperatures

Place Temperature

Stations

Nearby Weather Stations

Station Location Temp. Windchill Dew Point Humidity Wind Precip. Elev Updated Type
                   

Watches & Warnings

There are currently no watches in effect.